Time;durP1;ratioP1;P1;durP2;ratioP2;P2;SDS_P1;SDS_P2;PMS_P1;PMS_P2;Temp;Humidity;BMP_temperature;BMP_pressure;BME280_temperature;BME280_humidity;BME280_pressure;Samples;Min_cycle;Max_cycle;Signal;HPM_P1;HPM_P2
2024/01/22 00:00:35;;;;;;;90.22;50.80;;;-1.90;81.70;;;;;;5053318;28;20079;-67
2024/01/22 00:03:01;;;;;;;88.13;51.22;;;-1.90;82.10;;;;;;5053224;28;20055;-64
2024/01/22 00:05:27;;;;;;;73.35;43.97;;;-2.00;82.30;;;;;;5053024;28;20057;-67
2024/01/22 00:07:52;;;;;;;79.38;46.22;;;-2.10;84.30;;;;;;5053264;28;20024;-66
2024/01/22 00:10:18;;;;;;;79.07;43.42;;;-2.10;84.80;;;;;;5052927;28;20017;-64
2024/01/22 00:12:44;;;;;;;73.32;43.13;;;-2.10;85.50;;;;;;5053521;28;20021;-65
2024/01/22 00:15:10;;;;;;;75.75;45.67;;;-2.10;85.10;;;;;;5053139;28;20021;-66
2024/01/22 00:17:36;;;;;;;85.15;47.67;;;-2.00;84.70;;;;;;5053077;28;20032;-65
2024/01/22 00:20:02;;;;;;;105.60;60.33;;;-2.10;82.30;;;;;;5053196;28;20021;-63
2024/01/22 00:22:28;;;;;;;101.97;57.10;;;-2.10;80.70;;;;;;5052849;28;20040;-66
2024/01/22 00:24:54;;;;;;;86.30;48.45;;;-2.10;79.60;;;;;;5053092;28;20033;-63
2024/01/22 00:27:19;;;;;;;83.13;47.38;;;-2.10;82.00;;;;;;5052967;28;20028;-68
2024/01/22 00:29:45;;;;;;;95.15;55.30;;;-2.20;82.40;;;;;;5053089;28;20364;-66
2024/01/22 00:32:11;;;;;;;100.38;54.35;;;-2.20;80.70;;;;;;5053054;28;20387;-66
2024/01/22 00:34:37;;;;;;;76.70;45.65;;;-2.20;80.80;;;;;;5052751;28;20026;-65
2024/01/22 00:37:03;;;;;;;72.82;43.95;;;-2.20;80.80;;;;;;5052868;28;20021;-65
2024/01/22 00:39:29;;;;;;;84.00;46.17;;;-2.20;81.10;;;;;;5052974;28;20025;-65
2024/01/22 00:41:56;;;;;;;64.78;41.25;;;-2.30;81.10;;;;;;5052905;28;20029;-65
2024/01/22 00:44:22;;;;;;;72.25;42.65;;;-2.30;82.10;;;;;;5052904;28;20029;-65
2024/01/22 00:46:48;;;;;;;71.68;42.95;;;-2.30;80.40;;;;;;5054192;28;20029;-63
2024/01/22 00:49:14;;;;;;;60.50;35.65;;;-2.30;80.60;;;;;;5056701;28;20025;-67
2024/01/22 00:51:39;;;;;;;56.25;34.20;;;-2.40;82.20;;;;;;5056443;28;20031;-68
2024/01/22 00:54:05;;;;;;;54.13;33.33;;;-2.40;83.40;;;;;;5056649;28;20029;-62
2024/01/22 00:56:31;;;;;;;59.92;35.28;;;-2.40;81.50;;;;;;5056618;28;20029;-67
2024/01/22 00:58:57;;;;;;;51.95;32.05;;;-2.40;80.80;;;;;;5056567;28;20025;-68
2024/01/22 01:01:23;;;;;;;56.78;31.35;;;-2.40;81.30;;;;;;5056549;28;20100;-65
2024/01/22 01:03:49;;;;;;;90.93;53.88;;;-2.40;81.50;;;;;;5056196;28;20060;-66
2024/01/22 01:06:14;;;;;;;76.30;45.25;;;-2.50;81.40;;;;;;5056262;28;20175;-65
2024/01/22 01:08:40;;;;;;;59.22;35.50;;;-2.80;83.50;;;;;;5056476;28;20028;-63
2024/01/22 01:11:06;;;;;;;59.72;36.05;;;-2.90;85.20;;;;;;5056357;28;20025;-65
2024/01/22 01:13:31;;;;;;;63.25;38.55;;;-2.80;85.90;;;;;;5056158;28;20021;-67
2024/01/22 01:15:57;;;;;;;69.30;38.08;;;-2.70;85.90;;;;;;5056312;28;20029;-64
2024/01/22 01:18:23;;;;;;;67.07;39.78;;;-2.70;85.00;;;;;;5056577;28;20016;-67
2024/01/22 01:20:49;;;;;;;60.72;34.20;;;-2.60;83.60;;;;;;5055965;28;20103;-64
2024/01/22 01:23:14;;;;;;;52.20;34.00;;;-2.60;83.20;;;;;;5056262;28;20467;-66
2024/01/22 01:25:40;;;;;;;56.92;33.35;;;-2.60;82.80;;;;;;5055981;28;20102;-64
2024/01/22 01:28:06;;;;;;;52.47;31.48;;;-2.50;81.50;;;;;;5055934;28;20035;-64
2024/01/22 01:30:31;;;;;;;59.42;35.33;;;-2.50;82.50;;;;;;5056053;28;20437;-64
2024/01/22 01:32:57;;;;;;;71.88;40.72;;;-2.50;81.70;;;;;;5056148;28;20029;-63
2024/01/22 01:35:23;;;;;;;79.70;46.00;;;-2.60;81.70;;;;;;5055684;28;20087;-65
2024/01/22 01:37:48;;;;;;;63.63;38.03;;;-2.70;83.40;;;;;;5055788;28;20471;-64
2024/01/22 01:40:15;;;;;;;57.75;35.05;;;-2.80;85.60;;;;;;5054518;28;20025;-65
2024/01/22 01:42:44;;;;;;;48.10;30.00;;;-2.80;85.20;;;;;;5055704;28;20056;-63
2024/01/22 01:45:14;;;;;;;55.95;32.45;;;-2.80;85.70;;;;;;5055571;28;20082;-66
2024/01/22 01:47:47;;;;;;;51.17;31.23;;;-2.80;84.70;;;;;;5055800;28;20017;-63
2024/01/22 01:50:14;;;;;;;48.20;29.73;;;-2.70;84.30;;;;;;5055349;28;20021;-65
2024/01/22 01:52:42;;;;;;;53.92;31.98;;;-2.70;83.20;;;;;;5055729;28;20135;-65
2024/01/22 01:55:09;;;;;;;51.45;31.60;;;-2.70;83.90;;;;;;5055393;28;20032;-64
2024/01/22 01:57:39;;;;;;;55.63;32.63;;;-2.70;84.20;;;;;;5055013;28;20028;-66
2024/01/22 02:00:06;;;;;;;46.47;29.25;;;-2.70;82.60;;;;;;5055447;28;20379;-61
2024/01/22 02:02:32;;;;;;;56.90;34.15;;;-2.70;82.00;;;;;;5055453;28;20024;-65
2024/01/22 02:04:58;;;;;;;60.33;34.13;;;-2.80;81.10;;;;;;5054895;28;20049;-65
2024/01/22 02:07:24;;;;;;;60.53;36.58;;;-2.80;80.70;;;;;;5055247;28;20100;-65
2024/01/22 02:09:51;;;;;;;95.13;52.35;;;-2.90;80.40;;;;;;5055248;28;20025;-65
2024/01/22 02:12:18;;;;;;;64.25;37.72;;;-2.90;81.10;;;;;;5055159;28;20024;-66
2024/01/22 02:14:44;;;;;;;65.50;39.22;;;-2.90;81.80;;;;;;5055181;28;20435;-68
2024/01/22 02:17:10;;;;;;;64.40;38.30;;;-2.90;82.40;;;;;;5053764;28;20096;-62
2024/01/22 02:19:36;;;;;;;58.05;35.05;;;-2.90;81.40;;;;;;5055012;28;20139;-67
2024/01/22 02:22:01;;;;;;;63.47;37.97;;;-2.90;81.00;;;;;;5054989;28;20475;-64
2024/01/22 02:24:27;;;;;;;57.60;35.60;;;-2.90;80.60;;;;;;5055050;28;20025;-64
2024/01/22 02:26:53;;;;;;;48.47;30.60;;;-3.00;81.10;;;;;;5054891;28;20092;-66
2024/01/22 02:29:18;;;;;;;50.10;30.10;;;-3.00;81.30;;;;;;5054726;28;20379;-65
2024/01/22 02:31:47;;;;;;;49.55;28.85;;;-3.00;82.00;;;;;;5054946;28;20049;-63
2024/01/22 02:34:13;;;;;;;44.42;29.42;;;-3.00;81.60;;;;;;5054661;28;20043;-68
2024/01/22 02:36:39;;;;;;;49.33;29.05;;;-3.00;79.70;;;;;;5054701;28;20433;-64
2024/01/22 02:39:05;;;;;;;50.75;29.48;;;-3.00;78.90;;;;;;5054665;28;20025;-66
2024/01/22 02:41:30;;;;;;;55.13;33.72;;;-2.90;80.20;;;;;;5054727;28;20467;-67
2024/01/22 02:43:56;;;;;;;43.75;26.55;;;-3.10;80.10;;;;;;5054432;28;20025;-63
2024/01/22 02:46:22;;;;;;;51.77;30.23;;;-3.10;81.80;;;;;;5054726;28;20021;-68
2024/01/22 02:48:48;;;;;;;41.38;24.67;;;-3.10;79.80;;;;;;5054443;28;20071;-65
2024/01/22 02:51:14;;;;;;;43.53;25.27;;;-3.20;80.20;;;;;;5054500;28;20463;-67
2024/01/22 02:53:39;;;;;;;47.38;28.50;;;-3.20;80.90;;;;;;5054460;28;20063;-64
2024/01/22 02:56:05;;;;;;;64.38;38.88;;;-3.20;80.40;;;;;;5054367;28;20036;-67
2024/01/22 02:58:31;;;;;;;44.13;26.63;;;-3.20;80.30;;;;;;5054220;28;20427;-62
2024/01/22 03:00:57;;;;;;;44.25;24.75;;;-3.20;79.60;;;;;;5054207;28;20494;-65
2024/01/22 03:03:24;;;;;;;40.78;25.17;;;-3.20;80.40;;;;;;5053716;28;20017;-65
2024/01/22 03:05:49;;;;;;;40.22;24.00;;;-3.20;81.00;;;;;;5054162;28;20036;-64
2024/01/22 03:08:15;;;;;;;41.63;26.63;;;-3.20;80.60;;;;;;5054076;28;20471;-68
2024/01/22 03:10:41;;;;;;;42.23;24.73;;;-3.20;81.30;;;;;;5053387;28;20375;-67
2024/01/22 03:13:06;;;;;;;41.37;25.70;;;-3.30;82.00;;;;;;5054130;28;20020;-61
2024/01/22 03:15:32;;;;;;;39.08;24.92;;;-3.30;83.30;;;;;;5053916;28;20513;-65
2024/01/22 03:17:58;;;;;;;42.35;24.80;;;-3.30;84.40;;;;;;5053782;28;20031;-63
2024/01/22 03:20:24;;;;;;;41.80;26.05;;;-3.30;84.00;;;;;;5052740;28;20025;-63
2024/01/22 03:22:49;;;;;;;44.65;26.55;;;-3.20;83.80;;;;;;5053782;28;20025;-66
2024/01/22 03:25:15;;;;;;;37.75;22.35;;;-3.20;83.60;;;;;;5053951;28;20029;-63
2024/01/22 03:27:41;;;;;;;37.85;22.98;;;-3.20;81.50;;;;;;5053820;28;20493;-62
2024/01/22 03:30:07;;;;;;;36.90;23.88;;;-3.30;81.20;;;;;;5053680;28;20025;-62
2024/01/22 03:32:33;;;;;;;38.90;23.75;;;-3.30;79.90;;;;;;5053509;28;20049;-61
2024/01/22 03:34:59;;;;;;;40.05;23.15;;;-3.30;78.50;;;;;;5053624;28;20538;-66
2024/01/22 03:37:24;;;;;;;35.15;20.17;;;-3.30;79.90;;;;;;5053670;28;20056;-66
2024/01/22 03:39:50;;;;;;;35.47;22.77;;;-3.40;81.50;;;;;;5053529;28;20017;-61
2024/01/22 03:42:17;;;;;;;35.25;20.83;;;-3.40;80.90;;;;;;5053623;28;20021;-67
2024/01/22 03:44:42;;;;;;;33.40;19.25;;;-3.30;81.20;;;;;;5053569;28;20021;-68
2024/01/22 03:47:08;;;;;;;33.65;19.60;;;-3.30;80.50;;;;;;5053206;28;20498;-63
2024/01/22 03:49:34;;;;;;;30.40;19.13;;;-3.40;80.90;;;;;;5053562;28;20107;-62
2024/01/22 03:51:59;;;;;;;30.55;17.65;;;-3.40;83.50;;;;;;5053461;28;20024;-66
2024/01/22 03:54:25;;;;;;;29.20;17.17;;;-3.40;81.50;;;;;;5053166;28;20037;-64
2024/01/22 03:56:51;;;;;;;27.77;16.27;;;-3.50;81.40;;;;;;5053322;28;20360;-62
2024/01/22 03:59:18;;;;;;;26.60;16.05;;;-3.50;81.20;;;;;;5053330;28;20092;-62
2024/01/22 04:01:43;;;;;;;25.95;16.30;;;-3.50;81.00;;;;;;5053141;28;20481;-66
2024/01/22 04:04:10;;;;;;;29.38;18.45;;;-3.50;79.80;;;;;;5052850;28;20072;-66
2024/01/22 04:06:36;;;;;;;29.27;17.05;;;-3.50;80.10;;;;;;5053317;28;20017;-65
2024/01/22 04:09:02;;;;;;;27.42;18.17;;;-3.50;80.10;;;;;;5053254;28;20047;-66
2024/01/22 04:11:27;;;;;;;27.90;18.20;;;-3.50;80.40;;;;;;5053103;28;20031;-63
2024/01/22 04:13:53;;;;;;;25.20;15.40;;;-3.50;81.20;;;;;;5053223;28;20020;-64
2024/01/22 04:16:19;;;;;;;26.98;16.20;;;-3.60;81.70;;;;;;5052974;28;20022;-63
2024/01/22 04:18:45;;;;;;;51.97;30.67;;;-3.60;80.00;;;;;;5052955;28;20033;-64
2024/01/22 04:21:10;;;;;;;34.77;21.30;;;-3.60;76.90;;;;;;5055044;28;20352;-64
2024/01/22 04:23:36;;;;;;;36.25;20.55;;;-3.70;78.40;;;;;;5057273;28;20029;-63
2024/01/22 04:26:04;;;;;;;31.97;20.67;;;-3.80;78.90;;;;;;5057124;28;20421;-66
2024/01/22 04:28:30;;;;;;;34.87;19.83;;;-3.80;80.80;;;;;;5057263;28;20094;-66
2024/01/22 04:30:55;;;;;;;29.13;18.85;;;-3.80;80.20;;;;;;5057162;28;20056;-67
2024/01/22 04:33:21;;;;;;;28.40;16.60;;;-3.70;80.10;;;;;;5057028;28;20029;-62
2024/01/22 04:35:49;;;;;;;30.90;18.90;;;-3.70;79.40;;;;;;5056966;28;20032;-63
2024/01/22 04:38:15;;;;;;;31.50;18.20;;;-3.70;78.70;;;;;;5056931;28;20029;-64
2024/01/22 04:40:41;;;;;;;31.17;18.97;;;-3.80;77.80;;;;;;5056911;28;20475;-63
2024/01/22 04:43:07;;;;;;;49.63;29.00;;;-3.70;77.70;;;;;;5056823;28;20091;-67
2024/01/22 04:45:33;;;;;;;30.57;20.60;;;-3.70;78.00;;;;;;5056724;28;20024;-65
2024/01/22 04:47:59;;;;;;;29.73;19.10;;;-3.80;79.00;;;;;;5056800;28;20079;-64
2024/01/22 04:50:25;;;;;;;42.30;25.93;;;-3.90;78.70;;;;;;5055735;28;20430;-64
2024/01/22 04:52:50;;;;;;;30.47;19.37;;;-3.90;79.10;;;;;;5056752;28;20022;-64
2024/01/22 04:55:16;;;;;;;29.10;17.77;;;-3.90;81.10;;;;;;5056688;28;20080;-64
2024/01/22 04:57:42;;;;;;;28.03;16.73;;;-3.90;81.70;;;;;;5056426;28;20096;-63
2024/01/22 05:00:08;;;;;;;31.13;17.73;;;-3.90;80.40;;;;;;5056547;28;20020;-68
2024/01/22 05:02:34;;;;;;;27.87;18.30;;;-3.90;80.70;;;;;;5056584;28;20017;-66
2024/01/22 05:05:03;;;;;;;25.03;15.60;;;-3.90;80.80;;;;;;5056141;28;20056;-63
2024/01/22 05:07:28;;;;;;;28.73;16.57;;;-3.80;82.10;;;;;;5056463;28;20467;-68
2024/01/22 05:09:58;;;;;;;23.73;15.70;;;-3.90;82.60;;;;;;5056497;28;20074;-64
2024/01/22 05:12:24;;;;;;;28.43;17.00;;;-3.90;83.30;;;;;;5056145;28;20025;-66
2024/01/22 05:14:51;;;;;;;28.83;18.23;;;-3.90;83.30;;;;;;5056266;28;20029;-66
2024/01/22 05:17:16;;;;;;;50.70;28.87;;;-3.90;83.50;;;;;;5056294;28;20025;-64
2024/01/22 05:19:42;;;;;;;34.33;19.17;;;-3.90;83.40;;;;;;5056149;28;20021;-62
2024/01/22 05:22:08;;;;;;;33.70;21.87;;;-3.90;84.50;;;;;;5056168;28;20017;-65
2024/01/22 05:24:34;;;;;;;35.10;21.87;;;-3.90;83.30;;;;;;5056169;28;20017;-62
2024/01/22 05:27:02;;;;;;;33.53;17.88;;;-4.00;83.10;;;;;;5055815;28;20090;-63
2024/01/22 05:29:28;;;;;;;26.70;16.93;;;-4.00;84.50;;;;;;5055986;28;20029;-66
2024/01/22 05:31:53;;;;;;;23.53;16.03;;;-4.00;83.50;;;;;;5055492;28;20024;-64
2024/01/22 05:34:19;;;;;;;27.50;16.93;;;-4.10;84.00;;;;;;5055637;28;20057;-66
2024/01/22 05:36:45;;;;;;;26.30;15.83;;;-4.00;83.30;;;;;;5055746;28;20083;-66
2024/01/22 05:39:12;;;;;;;28.00;17.13;;;-3.90;83.00;;;;;;5055892;28;20021;-62
2024/01/22 05:41:39;;;;;;;29.63;18.37;;;-3.90;81.00;;;;;;5055630;28;20380;-63
2024/01/22 05:44:06;;;;;;;34.70;20.00;;;-3.90;80.30;;;;;;5055676;28;20456;-67
2024/01/22 05:46:32;;;;;;;28.83;18.40;;;-3.90;79.30;;;;;;5055699;28;20063;-65
2024/01/22 05:48:58;;;;;;;38.17;22.80;;;-4.00;78.50;;;;;;5055603;28;20048;-67
2024/01/22 05:51:24;;;;;;;30.57;18.10;;;-4.00;78.60;;;;;;5055558;28;20025;-66
2024/01/22 05:53:49;;;;;;;31.13;19.53;;;-4.10;78.30;;;;;;5054260;28;20400;-68
2024/01/22 05:56:25;;;;;;;45.17;28.00;;;-4.10;78.80;;;;;;5055255;28;20029;-66
2024/01/22 05:58:55;;;;;;;34.23;21.13;;;-4.20;80.20;;;;;;5055388;28;20021;-64
2024/01/22 06:01:21;;;;;;;39.73;23.77;;;-4.20;82.30;;;;;;5054206;28;20029;-64
2024/01/22 06:03:47;;;;;;;67.38;38.22;;;-4.20;82.50;;;;;;5055118;28;20090;-65
2024/01/22 06:06:14;;;;;;;61.57;36.17;;;-4.10;80.20;;;;;;5055288;28;20441;-64
2024/01/22 06:08:44;;;;;;;44.40;25.93;;;-4.20;81.00;;;;;;5054010;28;20465;-65
2024/01/22 06:11:13;;;;;;;44.10;26.97;;;-4.20;82.80;;;;;;5037262;28;20025;-64
2024/01/22 06:13:39;;;;;;;49.13;27.93;;;-4.20;83.30;;;;;;5035289;28;20033;-67
2024/01/22 06:16:07;;;;;;;44.53;25.27;;;-4.10;82.20;;;;;;5035376;28;20095;-67
2024/01/22 06:18:33;;;;;;;45.57;25.37;;;-4.20;82.70;;;;;;5035106;28;20061;-65
2024/01/22 06:20:59;;;;;;;47.73;27.77;;;-4.10;82.70;;;;;;5034420;28;20017;-67
2024/01/22 06:23:25;;;;;;;70.33;43.13;;;-4.10;81.90;;;;;;5035398;28;20032;-68
2024/01/22 06:25:50;;;;;;;51.03;30.63;;;-4.10;80.60;;;;;;5035034;28;20038;-64
2024/01/22 06:28:16;;;;;;;46.13;28.70;;;-4.20;81.50;;;;;;5034879;28;20030;-63
2024/01/22 06:30:43;;;;;;;47.83;28.63;;;-4.20;82.40;;;;;;5034974;28;20029;-63
2024/01/22 06:33:09;;;;;;;55.60;34.27;;;-4.20;82.60;;;;;;5034934;28;20028;-64
2024/01/22 06:35:35;;;;;;;50.10;28.73;;;-4.10;81.20;;;;;;5034631;28;20065;-66
2024/01/22 06:38:01;;;;;;;51.13;27.37;;;-4.10;80.50;;;;;;5048003;28;20111;-67
2024/01/22 06:40:28;;;;;;;51.27;31.30;;;-4.00;81.50;;;;;;5054298;28;20387;-65
2024/01/22 06:42:54;;;;;;;52.83;30.43;;;-4.00;81.40;;;;;;5054498;28;20024;-66
2024/01/22 06:45:19;;;;;;;55.30;29.63;;;-4.00;80.40;;;;;;5053441;28;20387;-61
2024/01/22 06:47:45;;;;;;;51.57;28.93;;;-3.90;78.80;;;;;;5054536;28;20025;-66
2024/01/22 06:50:11;;;;;;;57.33;33.43;;;-3.90;78.40;;;;;;5054303;28;20031;-65
2024/01/22 06:52:37;;;;;;;48.37;26.70;;;-3.80;78.30;;;;;;5053222;28;20024;-63
2024/01/22 06:55:05;;;;;;;45.50;26.47;;;-3.80;79.10;;;;;;5054175;28;20390;-62
2024/01/22 06:57:31;;;;;;;41.90;26.07;;;-3.70;79.60;;;;;;5054328;28;20106;-66
2024/01/22 06:59:56;;;;;;;44.17;25.37;;;-3.70;80.20;;;;;;5053062;28;20491;-65
2024/01/22 07:02:28;;;;;;;43.03;25.80;;;-3.60;81.00;;;;;;5054382;28;20379;-65
2024/01/22 07:04:55;;;;;;;38.97;23.97;;;-3.50;80.80;;;;;;5053673;28;20086;-63
2024/01/22 07:07:21;;;;;;;57.77;32.90;;;-3.50;78.90;;;;;;5044599;28;20094;-64
2024/01/22 07:09:47;;;;;;;58.03;32.27;;;-3.50;78.80;;;;;;5041662;28;20021;-68
2024/01/22 07:12:12;;;;;;;53.13;31.10;;;-3.40;79.00;;;;;;5034157;28;20070;-66
2024/01/22 07:14:39;;;;;;;68.73;36.60;;;-3.40;77.50;;;;;;5034512;28;20030;-65
2024/01/22 07:17:04;;;;;;;60.83;36.10;;;-3.40;77.10;;;;;;5032820;28;20022;-64
2024/01/22 07:19:30;;;;;;;58.00;32.53;;;-3.40;79.20;;;;;;5033708;28;20028;-64
2024/01/22 07:21:56;;;;;;;55.80;32.43;;;-3.40;77.80;;;;;;5036506;28;20021;-61
2024/01/22 07:24:21;;;;;;;59.63;33.83;;;-3.40;76.10;;;;;;5043822;28;20029;-66
2024/01/22 07:26:47;;;;;;;53.93;32.53;;;-3.40;76.60;;;;;;5043918;28;20018;-64
2024/01/22 07:29:13;;;;;;;58.80;32.37;;;-3.30;77.20;;;;;;5042001;28;20021;-63
2024/01/22 07:31:39;;;;;;;50.43;28.73;;;-3.30;76.90;;;;;;5043563;28;20020;-65
2024/01/22 07:34:05;;;;;;;46.07;27.00;;;-3.20;77.20;;;;;;5043410;28;20018;-64
2024/01/22 07:36:31;;;;;;;43.53;27.30;;;-3.30;77.00;;;;;;5039598;28;20025;-63
2024/01/22 07:38:58;;;;;;;74.07;43.10;;;-3.20;77.40;;;;;;5041897;28;20516;-66
2024/01/22 07:41:24;;;;;;;56.50;33.23;;;-3.20;78.20;;;;;;5035540;28;20030;-66
2024/01/22 07:43:49;;;;;;;48.53;29.83;;;-3.20;79.50;;;;;;5031679;28;20021;-64
2024/01/22 07:46:15;;;;;;;43.77;27.87;;;-2.80;80.60;;;;;;5030428;28;20036;-66
2024/01/22 07:48:41;;;;;;;39.22;23.67;;;-1.50;76.80;;;;;;5032635;28;20100;-64
2024/01/22 07:51:07;;;;;;;38.28;24.60;;;0.70;64.20;;;;;;5033612;28;20071;-63
2024/01/22 07:53:33;;;;;;;37.33;24.50;;;2.80;51.10;;;;;;5032968;28;20030;-63
2024/01/22 07:55:59;;;;;;;37.65;23.92;;;5.00;45.40;;;;;;5031655;28;20034;-65
2024/01/22 07:58:25;;;;;;;47.05;32.40;;;6.90;42.20;;;;;;5038328;28;20454;-67
2024/01/22 08:00:50;;;;;;;40.28;27.98;;;8.50;36.60;;;;;;5041400;28;20022;-64
2024/01/22 08:03:16;;;;;;;65.00;41.45;;;9.60;35.10;;;;;;5042420;28;20074;-66
2024/01/22 08:05:43;;;;;;;74.22;49.83;;;10.50;32.90;;;;;;5042744;28;20049;-66
2024/01/22 08:08:09;;;;;;;102.60;66.38;;;11.00;31.50;;;;;;5043283;28;20025;-64
2024/01/22 08:10:37;;;;;;;96.78;63.38;;;11.10;30.30;;;;;;5041090;28;20498;-66
2024/01/22 08:13:03;;;;;;;92.15;63.65;;;11.60;30.60;;;;;;5042068;28;20502;-65
2024/01/22 08:15:29;;;;;;;99.05;69.22;;;12.30;29.70;;;;;;5042113;28;20447;-64
2024/01/22 08:17:55;;;;;;;119.15;86.45;;;12.80;28.90;;;;;;5042001;28;20055;-63
2024/01/22 08:20:21;;;;;;;173.68;124.45;;;12.60;28.90;;;;;;5042288;28;20025;-68
2024/01/22 08:22:47;;;;;;;131.40;97.40;;;12.60;28.00;;;;;;5043162;28;20387;-66
2024/01/22 08:25:18;;;;;;;126.82;96.70;;;12.30;28.90;;;;;;5041598;28;20029;-64
2024/01/22 08:27:47;;;;;;;168.50;122.70;;;12.70;29.00;;;;;;5040500;28;20029;-66
2024/01/22 08:30:13;;;;;;;163.70;119.93;;;13.20;28.40;;;;;;5033025;28;20096;-66
2024/01/22 08:32:39;;;;;;;169.68;123.40;;;13.70;27.90;;;;;;5033101;28;20018;-65
2024/01/22 08:35:05;;;;;;;146.93;112.45;;;13.80;27.50;;;;;;5032448;28;20033;-62
2024/01/22 08:37:31;;;;;;;147.90;111.72;;;14.20;27.60;;;;;;5031555;28;20029;-64
2024/01/22 08:39:57;;;;;;;130.98;98.00;;;14.60;27.50;;;;;;5033065;28;20112;-65
2024/01/22 08:42:24;;;;;;;123.93;95.15;;;14.60;27.20;;;;;;5033036;28;20036;-65
2024/01/22 08:44:50;;;;;;;125.05;95.45;;;14.70;26.90;;;;;;5033297;28;20100;-63
2024/01/22 08:47:16;;;;;;;159.55;112.15;;;14.60;27.00;;;;;;5033213;28;20105;-65
2024/01/22 08:49:41;;;;;;;127.40;96.22;;;14.70;26.60;;;;;;5032750;28;20025;-67
2024/01/22 08:52:07;;;;;;;121.60;91.38;;;14.50;27.60;;;;;;5032957;28;20382;-62
2024/01/22 08:54:33;;;;;;;122.32;92.70;;;14.70;27.80;;;;;;5032637;28;20037;-66
2024/01/22 08:56:59;;;;;;;140.82;100.60;;;14.60;27.30;;;;;;5032101;28;20383;-65
2024/01/22 08:59:25;;;;;;;145.45;105.85;;;14.60;27.20;;;;;;5032846;28;20025;-63
2024/01/22 09:01:51;;;;;;;142.10;103.70;;;14.20;27.00;;;;;;5032757;28;20048;-63
2024/01/22 09:04:16;;;;;;;122.78;93.97;;;13.60;28.30;;;;;;5032373;28;20053;-64
2024/01/22 09:06:42;;;;;;;125.20;94.15;;;13.40;29.10;;;;;;5032743;28;20026;-65
2024/01/22 09:09:09;;;;;;;130.27;92.90;;;13.10;29.00;;;;;;5034506;28;20025;-63
2024/01/22 09:11:35;;;;;;;126.00;91.88;;;13.00;29.30;;;;;;5036706;28;20087;-67
2024/01/22 09:14:01;;;;;;;180.95;125.97;;;12.80;30.10;;;;;;5036370;28;20083;-66
2024/01/22 09:16:27;;;;;;;168.82;120.63;;;12.50;29.90;;;;;;5036245;28;20414;-64
2024/01/22 09:18:52;;;;;;;207.13;150.07;;;12.10;30.40;;;;;;5036373;28;20040;-63
2024/01/22 09:21:18;;;;;;;201.88;148.05;;;11.50;30.50;;;;;;5036285;28;20475;-64
2024/01/22 09:23:44;;;;;;;183.60;138.60;;;11.00;31.70;;;;;;5036165;28;20021;-65
2024/01/22 09:26:09;;;;;;;185.30;140.40;;;10.80;32.80;;;;;;5035333;28;20360;-63
2024/01/22 09:28:35;;;;;;;178.57;139.13;;;11.00;33.20;;;;;;5035134;28;20028;-67
2024/01/22 09:31:01;;;;;;;180.68;136.57;;;11.00;33.40;;;;;;5035161;28;20025;-66
2024/01/22 09:33:27;;;;;;;194.77;149.38;;;10.90;34.50;;;;;;5034619;28;20379;-66
2024/01/22 09:35:53;;;;;;;171.32;132.15;;;11.00;34.50;;;;;;5035993;28;20062;-65
2024/01/22 09:38:19;;;;;;;161.55;123.75;;;11.00;33.80;;;;;;5035947;28;20022;-66
2024/01/22 09:40:45;;;;;;;161.48;124.22;;;11.10;34.10;;;;;;5035676;28;20191;-66
2024/01/22 09:43:10;;;;;;;144.55;114.65;;;11.20;34.30;;;;;;5035428;28;20093;-66
2024/01/22 09:45:36;;;;;;;150.55;119.10;;;11.20;34.20;;;;;;5034721;28;20383;-65
2024/01/22 09:48:03;;;;;;;137.65;109.50;;;11.40;33.90;;;;;;5034560;28;20032;-67
2024/01/22 09:50:29;;;;;;;131.15;103.15;;;11.40;33.90;;;;;;5035825;28;20364;-65
2024/01/22 09:53:09;;;;;;;114.95;96.07;;;11.40;34.20;;;;;;5035744;28;20033;-67
2024/01/22 09:55:41;;;;;;;115.70;91.93;;;11.30;33.80;;;;;;5034643;28;20029;-66
2024/01/22 09:58:09;;;;;;;97.07;79.85;;;11.10;35.70;;;;;;5034302;28;20082;-64
2024/01/22 10:00:37;;;;;;;78.32;65.53;;;11.30;34.40;;;;;;5035635;28;20025;-67
2024/01/22 10:03:03;;;;;;;86.15;72.13;;;11.30;35.20;;;;;;5035281;28;20029;-66
2024/01/22 10:05:30;;;;;;;94.75;79.10;;;11.40;35.40;;;;;;5035318;28;20033;-63
2024/01/22 10:07:56;;;;;;;106.28;86.93;;;11.70;34.00;;;;;;5035452;28;20030;-63
2024/01/22 10:10:21;;;;;;;93.65;80.22;;;11.90;33.30;;;;;;5035382;28;20495;-63
2024/01/22 10:12:59;;;;;;;85.32;74.45;;;11.90;34.00;;;;;;5035505;28;20088;-65
2024/01/22 10:15:27;;;;;;;89.35;75.03;;;12.00;33.30;;;;;;5036782;28;20056;-65
2024/01/22 10:17:52;;;;;;;90.32;79.35;;;12.10;32.80;;;;;;5042078;28;20025;-65
2024/01/22 10:20:22;;;;;;;92.05;76.72;;;12.40;32.00;;;;;;5042156;28;20029;-65
2024/01/22 10:22:48;;;;;;;81.72;71.40;;;12.50;31.90;;;;;;5042449;28;20026;-64
2024/01/22 10:25:17;;;;;;;79.07;69.30;;;12.20;33.30;;;;;;5043403;28;20421;-64
2024/01/22 10:27:42;;;;;;;77.55;67.85;;;11.80;33.20;;;;;;5043425;28;20064;-65
2024/01/22 10:30:13;;;;;;;76.45;65.90;;;11.80;34.20;;;;;;5044388;28;20040;-65
2024/01/22 10:32:39;;;;;;;77.95;67.25;;;11.70;33.90;;;;;;5045593;28;20021;-69
2024/01/22 10:35:23;;;;;;;81.15;69.70;;;11.60;34.10;;;;;;5041099;28;20032;-67
2024/01/22 10:38:05;;;;;;;78.43;66.55;;;11.80;34.10;;;;;;5043175;28;20475;-66
2024/01/22 10:40:31;;;;;;;73.13;62.80;;;12.00;33.70;;;;;;5044230;28;20039;-66
2024/01/22 10:42:57;;;;;;;70.82;60.28;;;12.00;34.20;;;;;;5043871;28;20171;-66
2024/01/22 10:45:29;;;;;;;69.28;58.45;;;12.00;34.10;;;;;;5049133;28;20522;-63
2024/01/22 10:47:55;;;;;;;74.35;62.15;;;12.20;35.00;;;;;;5037587;28;20029;-64
2024/01/22 10:50:22;;;;;;;71.28;63.42;;;12.20;34.50;;;;;;5031858;28;20562;-67
2024/01/22 10:52:49;;;;;;;71.40;62.58;;;12.30;33.70;;;;;;5036950;28;20024;-67
2024/01/22 10:55:15;;;;;;;71.03;62.42;;;12.30;33.10;;;;;;5044720;28;20511;-67
2024/01/22 10:57:43;;;;;;;67.85;60.45;;;11.80;34.40;;;;;;5040590;28;20056;-64
2024/01/22 11:00:14;;;;;;;64.38;57.45;;;12.00;34.50;;;;;;5044307;28;20499;-64
2024/01/22 11:02:46;;;;;;;59.10;52.38;;;12.20;33.90;;;;;;5043011;28;20021;-63
2024/01/22 11:05:14;;;;;;;56.25;50.35;;;12.30;34.20;;;;;;5042525;28;20041;-63
2024/01/22 11:07:40;;;;;;;48.58;43.38;;;12.50;33.40;;;;;;5043079;28;20535;-64
2024/01/22 11:10:10;;;;;;;48.22;43.13;;;12.60;33.50;;;;;;5043465;28;20140;-65
2024/01/22 11:12:57;;;;;;;44.65;39.90;;;12.70;33.50;;;;;;5044519;28;20048;-62
2024/01/22 11:15:23;;;;;;;44.08;39.38;;;12.60;33.30;;;;;;5045089;28;20030;-67
2024/01/22 11:17:48;;;;;;;43.28;38.60;;;12.70;33.50;;;;;;5043177;28;20378;-67
2024/01/22 11:20:18;;;;;;;42.05;37.58;;;12.50;33.40;;;;;;5042383;28;20079;-67
2024/01/22 11:23:00;;;;;;;44.45;39.33;;;12.50;33.90;;;;;;5043568;28;20562;-66
2024/01/22 11:25:26;;;;;;;41.13;36.75;;;12.60;32.90;;;;;;5043311;28;20029;-64
2024/01/22 11:28:10;;;;;;;39.80;35.60;;;12.70;33.30;;;;;;5042445;28;20070;-64
2024/01/22 11:30:41;;;;;;;41.22;36.92;;;12.40;33.10;;;;;;5043665;28;20056;-62
2024/01/22 11:33:25;;;;;;;42.58;38.17;;;12.30;33.60;;;;;;5042100;28;20033;-63
2024/01/22 11:35:52;;;;;;;39.38;35.33;;;12.50;33.00;;;;;;5043833;28;20082;-67
2024/01/22 11:38:47;;;;;;;39.65;35.55;;;12.60;33.30;;;;;;5042077;28;20029;-63
2024/01/22 11:41:30;;;;;;;43.03;38.47;;;12.60;33.90;;;;;;5043889;28;20025;-66
2024/01/22 11:43:56;;;;;;;41.90;37.60;;;12.20;33.90;;;;;;5043892;28;20025;-66
2024/01/22 11:46:21;;;;;;;40.28;36.05;;;12.40;34.30;;;;;;5042446;28;20396;-66
2024/01/22 11:48:47;;;;;;;39.35;35.13;;;12.60;33.50;;;;;;5042849;28;20085;-67
2024/01/22 11:51:13;;;;;;;37.30;33.45;;;12.80;32.20;;;;;;5043828;28;20672;-65
2024/01/22 11:53:56;;;;;;;35.40;31.73;;;12.60;33.20;;;;;;5047851;28;20029;-65
2024/01/22 11:56:22;;;;;;;40.38;35.60;;;12.60;33.70;;;;;;5052102;28;20467;-63
2024/01/22 11:58:58;;;;;;;39.35;35.10;;;12.50;33.50;;;;;;5051953;28;20036;-67
2024/01/22 12:01:24;;;;;;;36.03;31.70;;;12.50;33.40;;;;;;5053400;28;20017;-65
2024/01/22 12:03:50;;;;;;;32.65;29.20;;;12.60;32.30;;;;;;5052895;28;20174;-64
2024/01/22 12:06:15;;;;;;;37.92;32.38;;;12.60;32.20;;;;;;5053436;28;20025;-65
2024/01/22 12:08:54;;;;;;;34.58;31.05;;;12.70;33.80;;;;;;5053404;28;20497;-63
2024/01/22 12:11:19;;;;;;;30.38;27.20;;;12.80;33.10;;;;;;5053115;28;20021;-67
2024/01/22 12:13:45;;;;;;;31.30;28.15;;;12.90;33.00;;;;;;5053084;28;20021;-67
2024/01/22 12:16:18;;;;;;;33.33;29.58;;;12.90;32.80;;;;;;5053237;28;20025;-66
2024/01/22 12:18:44;;;;;;;31.08;27.83;;;12.90;32.00;;;;;;5053232;28;20044;-66
2024/01/22 12:21:10;;;;;;;29.83;26.92;;;12.70;34.00;;;;;;5053142;28;20401;-64
2024/01/22 12:23:37;;;;;;;28.35;25.35;;;12.60;33.60;;;;;;5053224;28;20442;-67